createdAt,value
2022-09-23T00:01:19.797Z,101918.03
2022-09-23T00:03:48.991Z,101914.34
2022-09-23T00:06:20.551Z,101909.13
2022-09-23T00:08:51.643Z,101907.47
2022-09-23T00:11:22.697Z,101912.66
2022-09-23T00:13:53.759Z,101913.66
2022-09-23T00:16:25.912Z,101901.25
2022-09-23T00:18:53.031Z,101902.25
2022-09-23T00:21:22.022Z,101907.63
2022-09-23T00:23:49.591Z,101901.44
2022-09-23T00:26:20.402Z,101900.28
2022-09-23T00:28:49.108Z,101898.28
2022-09-23T00:31:25.783Z,101889.22
2022-09-23T00:33:56.558Z,101891.91
2022-09-23T00:36:25.148Z,101886.72
2022-09-23T00:38:52.223Z,101894.94
2022-09-23T00:41:19.518Z,101892.25
2022-09-23T00:43:55.996Z,101884.53
2022-09-23T00:46:27.364Z,101878.50
2022-09-23T00:49:07.371Z,101878.66
2022-09-23T00:51:41.471Z,101877.22
2022-09-23T00:54:09.047Z,101874.84
2022-09-23T00:56:39.162Z,101878.19
2022-09-23T00:59:09.516Z,101869.47
2022-09-23T01:01:37.766Z,101861.47
2022-09-23T01:04:06.708Z,101865.16
2022-09-23T01:06:33.641Z,101857.09
2022-09-23T01:09:00.557Z,101860.78
2022-09-23T01:11:56.909Z,101860.13
2022-09-23T01:14:48.824Z,101864.19
2022-09-23T01:17:57.129Z,101871.91
2022-09-23T01:21:04.325Z,101866.53
2022-09-23T01:24:14.570Z,101864.88
2022-09-23T01:27:15.324Z,101863.53
2022-09-23T01:30:06.963Z,101860.19
2022-09-23T01:32:53.808Z,101858.53
2022-09-23T01:35:52.548Z,101866.25
2022-09-23T01:38:43.731Z,101857.53
2022-09-23T01:41:52.248Z,101845.81
2022-09-23T01:44:34.789Z,101842.13
2022-09-23T01:47:17.272Z,101846.81
2022-09-23T01:50:01.069Z,101843.84
2022-09-23T01:52:37.776Z,101846.53
2022-09-23T01:55:18.915Z,101843.00
2022-09-23T01:58:07.784Z,101836.63
2022-09-23T02:00:41.677Z,101843.84
2022-09-23T02:03:17.336Z,101836.13
2022-09-23T02:05:58.810Z,101836.97
2022-09-23T02:08:47.606Z,101837.81
2022-09-23T02:11:16.114Z,101841.34
2022-09-23T02:13:59.854Z,101835.97
2022-09-23T02:16:51.344Z,101831.78
2022-09-23T02:19:36.501Z,101829.09
2022-09-23T02:22:13.672Z,101827.44
2022-09-23T02:24:40.623Z,101821.41
2022-09-23T02:27:59.529Z,101822.41
2022-09-23T02:30:38.903Z,101810.84
2022-09-23T02:33:15.359Z,101803.81
2022-09-23T02:35:56.909Z,101802.13
2022-09-23T02:38:31.713Z,101807.84
2022-09-23T02:41:14.953Z,101796.28
2022-09-23T02:43:59.752Z,101794.75
2022-09-23T02:46:28.215Z,101797.78
2022-09-23T02:49:19.155Z,101797.13
2022-09-23T02:51:46.512Z,101799.31
2022-09-23T02:54:24.259Z,101790.59
2022-09-23T02:56:52.388Z,101783.72
2022-09-23T02:59:22.848Z,101788.44
2022-09-23T03:01:49.750Z,101783.75
2022-09-23T03:04:40.470Z,101779.22
2022-09-23T03:07:23.443Z,101787.44
2022-09-23T03:10:24.670Z,101774.53
2022-09-23T03:13:29.375Z,101778.56
2022-09-23T03:16:11.741Z,101772.75
2022-09-23T03:18:50.301Z,101773.22
2022-09-23T03:21:39.284Z,101771.53
2022-09-23T03:24:09.665Z,101757.50
2022-09-23T03:26:39.724Z,101768.22
2022-09-23T03:29:09.462Z,101762.38
2022-09-23T03:31:39.966Z,101773.94
2022-09-23T03:34:20.019Z,101766.88
2022-09-23T03:37:00.598Z,101767.72
2022-09-23T03:39:36.090Z,101758.00
2022-09-23T03:42:16.598Z,101760.53
2022-09-23T03:44:46.013Z,101756.16
2022-09-23T03:47:15.213Z,101757.84
2022-09-23T03:49:51.444Z,101758.50
2022-09-23T03:52:21.880Z,101756.66
2022-09-23T03:54:49.425Z,101755.47
2022-09-23T03:57:16.344Z,101757.97
2022-09-23T03:59:43.399Z,101742.88
2022-09-23T04:02:11.739Z,101748.91
2022-09-23T04:04:40.988Z,101742.56
2022-09-23T04:07:08.160Z,101748.75
2022-09-23T04:09:36.088Z,101743.38
2022-09-23T04:12:04.168Z,101741.53
2022-09-23T04:14:31.796Z,101732.66
2022-09-23T04:16:58.773Z,101736.34
2022-09-23T04:19:25.699Z,101737.53
2022-09-23T04:21:53.308Z,101745.56
2022-09-23T04:24:20.477Z,101741.03
2022-09-23T04:26:52.595Z,101746.78
2022-09-23T04:29:20.992Z,101741.41
2022-09-23T04:31:48.902Z,101740.41
2022-09-23T04:34:17.314Z,101734.38
2022-09-23T04:36:48.335Z,101730.88
2022-09-23T04:39:16.986Z,101731.53
2022-09-23T04:41:45.282Z,101728.66
2022-09-23T04:44:13.657Z,101722.50
2022-09-23T04:46:47.927Z,101720.44
2022-09-23T04:49:16.485Z,101722.13
2022-09-23T04:51:43.529Z,101727.31
2022-09-23T04:54:12.355Z,101732.31
2022-09-23T04:56:39.841Z,101727.63
2022-09-23T04:59:07.922Z,101727.28
2022-09-23T05:01:36.373Z,101727.94
2022-09-23T05:04:07.287Z,101729.44
2022-09-23T05:06:35.548Z,101726.25
2022-09-23T05:09:05.465Z,101719.69
2022-09-23T05:11:32.763Z,101720.19
2022-09-23T05:14:00.182Z,101719.00
2022-09-23T05:16:27.381Z,101726.72
2022-09-23T05:18:54.715Z,101723.69
2022-09-23T05:21:28.889Z,101727.88
2022-09-23T05:23:59.004Z,101717.78
2022-09-23T05:26:29.967Z,101720.97
2022-09-23T05:28:58.376Z,101712.75
2022-09-23T05:31:28.718Z,101716.09
2022-09-23T05:34:00.259Z,101721.28
2022-09-23T05:36:33.062Z,101725.47
2022-09-23T05:39:04.166Z,101727.75
2022-09-23T05:41:31.693Z,101727.59
2022-09-23T05:43:59.623Z,101722.72
2022-09-23T05:46:29.679Z,101734.09
2022-09-23T05:49:02.239Z,101728.38
2022-09-23T05:51:31.620Z,101735.06
2022-09-23T05:54:00.158Z,101726.84
2022-09-23T05:56:28.988Z,101725.66
2022-09-23T05:58:58.921Z,101728.00
2022-09-23T06:01:28.645Z,101725.78
2022-09-23T06:03:57.596Z,101728.13
2022-09-23T06:06:32.768Z,101729.63
2022-09-23T06:09:00.998Z,101731.94
2022-09-23T06:11:31.726Z,101732.59
2022-09-23T06:14:03.131Z,101731.25
2022-09-23T06:16:33.560Z,101732.56
2022-09-23T06:19:05.899Z,101729.50
2022-09-23T06:21:38.643Z,101727.31
2022-09-23T06:24:07.311Z,101728.81
2022-09-23T06:26:36.282Z,101723.25
2022-09-23T06:29:09.993Z,101719.38
2022-09-23T06:31:37.472Z,101716.16
2022-09-23T06:34:11.926Z,101719.50
2022-09-23T06:36:44.538Z,101725.00
2022-09-23T06:39:13.436Z,101719.91
2022-09-23T06:41:40.372Z,101716.88
2022-09-23T06:44:07.403Z,101723.56
2022-09-23T06:46:34.433Z,101719.97
2022-09-23T06:49:02.750Z,101715.72
2022-09-23T06:51:29.678Z,101718.47
2022-09-23T06:53:56.604Z,101718.41
2022-09-23T06:56:23.877Z,101727.59
2022-09-23T06:58:52.627Z,101729.56
2022-09-23T07:01:19.951Z,101719.91
2022-09-23T07:03:48.446Z,101718.63
2022-09-23T07:06:17.015Z,101725.78
2022-09-23T07:08:46.844Z,101722.13
2022-09-23T07:11:14.639Z,101718.34
2022-09-23T07:13:42.720Z,101714.06
2022-09-23T07:16:11.480Z,101712.56
2022-09-23T07:18:39.397Z,101713.31
2022-09-23T07:21:14.994Z,101717.56
2022-09-23T07:23:47.685Z,101720.97
2022-09-23T07:26:16.382Z,101714.25
2022-09-23T07:28:43.982Z,101713.94
2022-09-23T07:31:15.383Z,101708.28
2022-09-23T07:33:44.299Z,101712.53
2022-09-23T07:36:20.147Z,101713.44
2022-09-23T07:38:47.773Z,101713.47
2022-09-23T07:41:18.871Z,101720.78
2022-09-23T07:43:47.440Z,101718.41
2022-09-23T07:46:18.048Z,101717.44
2022-09-23T07:48:46.219Z,101722.94
2022-09-23T07:51:17.805Z,101723.00
2022-09-23T07:53:49.104Z,101720.13
2022-09-23T07:56:18.913Z,101716.91
2022-09-23T07:58:59.856Z,101722.16
2022-09-23T08:01:39.239Z,101717.88
2022-09-23T08:04:27.671Z,101722.91
2022-09-23T08:06:58.669Z,101726.28
2022-09-23T08:09:31.683Z,101719.31
2022-09-23T08:11:58.820Z,101717.53
2022-09-23T08:14:25.964Z,101720.69
2022-09-23T08:16:54.041Z,101716.97
2022-09-23T08:19:21.276Z,101724.28
2022-09-23T08:21:50.231Z,101717.47
2022-09-23T08:24:19.741Z,101719.38
2022-09-23T08:26:48.300Z,101723.72
2022-09-23T08:29:17.872Z,101723.31
2022-09-23T08:31:45.021Z,101728.75
2022-09-23T08:34:13.165Z,101724.38
2022-09-23T08:36:40.058Z,101717.50
2022-09-23T08:39:07.428Z,101718.75
2022-09-23T08:41:57.506Z,101724.53
2022-09-23T08:44:42.601Z,101710.81
2022-09-23T08:47:31.168Z,101715.81
2022-09-23T08:50:05.368Z,101723.69
2022-09-23T08:52:49.412Z,101715.97
2022-09-23T08:55:18.504Z,101721.53
2022-09-23T08:58:24.618Z,101715.50
2022-09-23T09:01:13.009Z,101720.91
2022-09-23T09:04:44.237Z,101713.78
2022-09-23T09:07:38.675Z,101705.22
2022-09-23T09:10:26.736Z,101714.81
2022-09-23T09:13:20.417Z,101722.50
2022-09-23T09:16:05.615Z,101707.25
2022-09-23T09:18:35.362Z,101712.00
2022-09-23T09:21:15.924Z,101711.53
2022-09-23T09:23:57.814Z,101711.28
2022-09-23T09:26:35.116Z,101705.41
2022-09-23T09:29:36.168Z,101710.59
2022-09-23T09:32:22.658Z,101709.94
2022-09-23T09:35:00.303Z,101704.28
2022-09-23T09:37:44.587Z,101695.34
2022-09-23T09:40:13.497Z,101692.38
2022-09-23T09:42:43.500Z,101704.28
2022-09-23T09:45:36.009Z,101692.38
2022-09-23T09:48:20.904Z,101690.75
2022-09-23T09:50:51.789Z,101698.59
2022-09-23T09:53:35.688Z,101698.13
2022-09-23T09:56:10.032Z,101698.44
2022-09-23T09:59:10.655Z,101695.09
2022-09-23T10:01:38.192Z,101692.44
2022-09-23T10:04:24.814Z,101693.09
2022-09-23T10:07:07.121Z,101684.66
2022-09-23T10:09:37.752Z,101683.53
2022-09-23T10:12:18.265Z,101689.50
2022-09-23T10:14:51.211Z,101686.72
2022-09-23T10:17:27.997Z,101669.50
2022-09-23T10:20:08.257Z,101672.97
2022-09-23T10:22:42.777Z,101671.56
2022-09-23T10:25:27.434Z,101668.25
2022-09-23T10:27:54.340Z,101665.66
2022-09-23T10:30:27.040Z,101669.94
2022-09-23T10:32:56.844Z,101661.72
2022-09-23T10:35:28.134Z,101656.19
2022-09-23T10:37:59.980Z,101657.69
2022-09-23T10:40:58.990Z,101657.63
2022-09-23T10:44:04.245Z,101661.84
2022-09-23T10:46:46.991Z,101657.47
2022-09-23T10:49:34.183Z,101662.50
2022-09-23T10:52:25.796Z,101663.09
2022-09-23T10:55:21.785Z,101657.91
2022-09-23T10:58:24.583Z,101658.13
2022-09-23T11:01:25.762Z,101661.91
2022-09-23T11:04:22.847Z,101659.78
2022-09-23T11:07:26.869Z,101663.75
2022-09-23T11:09:59.449Z,101661.41
2022-09-23T11:13:06.154Z,101664.50
2022-09-23T11:16:13.020Z,101656.38
2022-09-23T11:19:01.968Z,101658.41
2022-09-23T11:21:51.650Z,101661.50
2022-09-23T11:24:36.630Z,101655.00
2022-09-23T11:27:25.952Z,101655.31
2022-09-23T11:30:13.367Z,101656.72
2022-09-23T11:33:13.843Z,101661.50
2022-09-23T11:36:25.779Z,101656.06
2022-09-23T11:38:55.392Z,101657.75
2022-09-23T11:41:32.648Z,101648.97
2022-09-23T11:44:15.804Z,101649.06
2022-09-23T11:46:49.407Z,101642.69
2022-09-23T11:49:59.184Z,101644.34
2022-09-23T11:52:35.491Z,101640.84
2022-09-23T11:55:27.404Z,101633.88
2022-09-23T11:58:25.348Z,101630.94
2022-09-23T12:01:10.015Z,101632.59
2022-09-23T12:04:14.425Z,101632.13
2022-09-23T12:07:08.361Z,101634.84
2022-09-23T12:09:57.658Z,101622.44
2022-09-23T12:12:47.657Z,101618.88
2022-09-23T12:15:58.726Z,101618.88
2022-09-23T12:19:06.500Z,101619.38
2022-09-23T12:22:17.707Z,101624.81
2022-09-23T12:24:59.610Z,101615.09
2022-09-23T12:27:33.082Z,101614.50
2022-09-23T12:30:06.753Z,101611.31
2022-09-23T12:32:34.315Z,101613.56
2022-09-23T12:35:02.660Z,101602.09
2022-09-23T12:37:37.935Z,101597.47
2022-09-23T12:40:21.609Z,101593.56
2022-09-23T12:42:49.939Z,101598.06
2022-09-23T12:45:32.418Z,101594.63
2022-09-23T12:48:01.060Z,101596.41
2022-09-23T12:51:02.646Z,101602.19
2022-09-23T12:53:35.690Z,101590.13
2022-09-23T12:56:25.036Z,101585.63
2022-09-23T12:59:07.975Z,101583.13
2022-09-23T13:01:38.435Z,101586.44
2022-09-23T13:04:24.354Z,101591.19
2022-09-23T13:07:06.774Z,101589.53
2022-09-23T13:09:41.913Z,101582.78
2022-09-23T13:12:24.655Z,101586.09
2022-09-23T13:14:56.017Z,101580.53
2022-09-23T13:17:40.488Z,101580.53
2022-09-23T13:20:19.531Z,101588.09
2022-09-23T13:22:49.179Z,101574.25
2022-09-23T13:25:26.700Z,101575.44
2022-09-23T13:27:57.282Z,101575.19
2022-09-23T13:30:26.861Z,101575.19
2022-09-23T13:33:10.637Z,101571.41
2022-09-23T13:35:50.562Z,101570.59
2022-09-23T13:38:26.727Z,101570.13
2022-09-23T13:41:03.365Z,101569.63
2022-09-23T13:44:00.313Z,101567.63
2022-09-23T13:46:39.622Z,101564.66
2022-09-23T13:49:12.759Z,101567.16
2022-09-23T13:51:39.687Z,101563.50
2022-09-23T13:54:06.690Z,101554.13
2022-09-23T13:56:35.221Z,101559.94
2022-09-23T13:59:29.263Z,101555.78
2022-09-23T14:02:15.404Z,101555.44
2022-09-23T14:04:42.673Z,101559.22
2022-09-23T14:07:14.303Z,101551.16
2022-09-23T14:09:48.951Z,101549.84
2022-09-23T14:12:21.907Z,101541.19
2022-09-23T14:14:51.597Z,101535.50
2022-09-23T14:17:22.906Z,101537.72
2022-09-23T14:19:50.944Z,101536.34
2022-09-23T14:22:29.937Z,101534.25
2022-09-23T14:24:58.362Z,101526.25
2022-09-23T14:27:33.643Z,101527.25
2022-09-23T14:30:04.047Z,101525.59
2022-09-23T14:32:32.172Z,101521.22
2022-09-23T14:35:05.104Z,101516.19
2022-09-23T14:37:56.416Z,101521.97
2022-09-23T14:40:33.112Z,101518.50
2022-09-23T14:43:17.713Z,101518.19
2022-09-23T14:45:50.329Z,101510.25
2022-09-23T14:48:26.959Z,101519.66
2022-09-23T14:50:59.653Z,101509.25
2022-09-23T14:53:46.192Z,101513.03
2022-09-23T14:56:23.140Z,101508.75
2022-09-23T14:58:59.919Z,101505.94
2022-09-23T15:01:32.958Z,101502.63
2022-09-23T15:04:11.539Z,101504.66
2022-09-23T15:06:42.929Z,101502.28
2022-09-23T15:09:26.937Z,101511.19
2022-09-23T15:12:00.672Z,101504.56
2022-09-23T15:14:41.101Z,101503.03
2022-09-23T15:17:30.038Z,101499.03
2022-09-23T15:20:02.387Z,101506.84
2022-09-23T15:22:29.553Z,101496.81
2022-09-23T15:25:21.473Z,101489.22
2022-09-23T15:28:08.611Z,101499.75
2022-09-23T15:30:37.242Z,101496.94
2022-09-23T15:33:05.008Z,101490.66
2022-09-23T15:35:32.620Z,101497.16
2022-09-23T15:38:02.053Z,101490.31
2022-09-23T15:40:35.861Z,101491.13
2022-09-23T15:43:20.557Z,101488.91
2022-09-23T15:46:13.041Z,101499.41
2022-09-23T15:48:58.668Z,101494.94
2022-09-23T15:51:27.688Z,101491.63
2022-09-23T15:53:55.574Z,101486.88
2022-09-23T15:56:23.825Z,101484.53
2022-09-23T15:58:51.344Z,101485.25
2022-09-23T16:01:30.464Z,101484.78
2022-09-23T16:04:00.093Z,101488.81
2022-09-23T16:06:27.879Z,101486.91
2022-09-23T16:08:55.688Z,101479.47
2022-09-23T16:11:31.607Z,101494.22
2022-09-23T16:14:00.588Z,101485.13
2022-09-23T16:16:28.341Z,101485.84
2022-09-23T16:18:55.699Z,101482.16
2022-09-23T16:21:26.513Z,101477.19
2022-09-23T16:23:55.301Z,101483.69
2022-09-23T16:26:29.542Z,101480.13
2022-09-23T16:28:58.516Z,101485.69
2022-09-23T16:31:29.510Z,101490.53
2022-09-23T16:33:57.004Z,101488.75
2022-09-23T16:36:28.757Z,101494.63
2022-09-23T16:38:56.304Z,101486.41
2022-09-23T16:41:25.241Z,101489.03
2022-09-23T16:43:53.474Z,101486.41
2022-09-23T16:46:21.179Z,101486.56
2022-09-23T16:48:52.610Z,101492.31
2022-09-23T16:51:38.833Z,101498.53
2022-09-23T16:54:10.520Z,101496.03
2022-09-23T16:56:44.160Z,101489.78
2022-09-23T16:59:15.618Z,101489.78
2022-09-23T17:02:02.490Z,101491.16
2022-09-23T17:04:29.504Z,101490.47
2022-09-23T17:06:56.610Z,101493.72
2022-09-23T17:09:27.416Z,101496.22
2022-09-23T17:12:27.659Z,101498.56
2022-09-23T17:14:54.641Z,101497.41
2022-09-23T17:17:22.149Z,101495.44
2022-09-23T17:19:49.056Z,101494.25
2022-09-23T17:22:15.986Z,101493.63
2022-09-23T17:24:42.877Z,101487.47
2022-09-23T17:27:09.824Z,101492.88
2022-09-23T17:29:36.904Z,101488.81
2022-09-23T17:32:04.881Z,101486.56
2022-09-23T17:34:33.253Z,101483.25
2022-09-23T17:37:00.484Z,101488.81
2022-09-23T17:39:27.366Z,101496.34
2022-09-23T17:41:57.148Z,101479.25
2022-09-23T17:44:24.129Z,101478.13
2022-09-23T17:46:51.054Z,101470.22
2022-09-23T17:49:18.117Z,101468.47
2022-09-23T17:51:45.452Z,101467.34
2022-09-23T17:54:14.811Z,101468.31
2022-09-23T17:56:45.134Z,101471.50
2022-09-23T17:59:12.743Z,101464.41
2022-09-23T18:01:39.972Z,101468.66
2022-09-23T18:04:07.432Z,101470.75
2022-09-23T18:06:37.444Z,101465.56
2022-09-23T18:09:08.392Z,101474.53
2022-09-23T18:11:38.599Z,101468.97
2022-09-23T18:14:13.734Z,101469.56
2022-09-23T18:16:42.925Z,101473.78
2022-09-23T18:19:22.040Z,101467.09
2022-09-23T18:21:52.569Z,101461.69
2022-09-23T18:24:35.252Z,101468.38
2022-09-23T18:27:02.373Z,101473.28
2022-09-23T18:29:29.830Z,101472.22
2022-09-23T18:31:56.877Z,101473.56
2022-09-23T18:34:24.210Z,101478.47
2022-09-23T18:36:51.299Z,101477.63
2022-09-23T18:39:18.285Z,101467.41
2022-09-23T18:41:45.345Z,101468.91
2022-09-23T18:44:12.280Z,101471.00
2022-09-23T18:46:39.200Z,101468.91
2022-09-23T18:49:24.583Z,101470.63
2022-09-23T18:51:55.459Z,101467.25
2022-09-23T18:54:24.766Z,101473.94
2022-09-23T18:56:54.759Z,101471.44
2022-09-23T18:59:26.135Z,101482.28
2022-09-23T19:01:56.432Z,101476.88
2022-09-23T19:04:25.481Z,101479.34
2022-09-23T19:06:53.860Z,101480.03
2022-09-23T19:09:20.987Z,101477.31
2022-09-23T19:11:51.985Z,101478.59
2022-09-23T19:14:18.963Z,101475.81
2022-09-23T19:16:45.985Z,101480.47
2022-09-23T19:19:12.904Z,101477.16
2022-09-23T19:21:39.782Z,101476.09
2022-09-23T19:24:08.335Z,101472.50
2022-09-23T19:26:39.592Z,101473.63
2022-09-23T19:29:14.079Z,101475.50
2022-09-23T19:31:41.728Z,101474.50
2022-09-23T19:34:17.671Z,101474.88
2022-09-23T19:36:47.205Z,101476.56
2022-09-23T19:39:26.763Z,101478.03
2022-09-23T19:41:55.613Z,101474.06
2022-09-23T19:44:24.997Z,101467.38
2022-09-23T19:46:56.337Z,101471.78
2022-09-23T19:49:25.430Z,101465.09
2022-09-23T19:51:55.305Z,101459.53
2022-09-23T19:54:23.273Z,101463.88
2022-09-23T19:56:50.661Z,101463.53
2022-09-23T19:59:19.090Z,101461.13
2022-09-23T20:01:47.751Z,101462.16
2022-09-23T20:04:15.651Z,101459.91
2022-09-23T20:06:42.841Z,101461.72
2022-09-23T20:09:09.871Z,101465.41
2022-09-23T20:11:36.870Z,101456.25
2022-09-23T20:14:05.921Z,101454.19
2022-09-23T20:16:35.641Z,101454.56
2022-09-23T20:19:04.010Z,101448.91
2022-09-23T20:21:31.684Z,101452.44
2022-09-23T20:23:58.822Z,101447.13
2022-09-23T20:26:44.492Z,101453.06
2022-09-23T20:29:11.615Z,101452.91
2022-09-23T20:31:40.946Z,101452.16
2022-09-23T20:34:10.997Z,101452.00
2022-09-23T20:36:40.827Z,101438.66
2022-09-23T20:39:09.696Z,101445.41
2022-09-23T20:41:38.938Z,101446.19
2022-09-23T20:44:10.264Z,101442.22
2022-09-23T20:46:37.319Z,101439.03
2022-09-23T20:49:04.869Z,101437.28
2022-09-23T20:51:34.942Z,101428.97
2022-09-23T20:54:02.239Z,101432.97
2022-09-23T20:56:29.836Z,101427.94
2022-09-23T20:59:04.825Z,101432.28
2022-09-23T21:01:36.881Z,101424.28
2022-09-23T21:04:05.895Z,101424.91
2022-09-23T21:06:35.672Z,101424.44
2022-09-23T21:09:03.908Z,101422.63
2022-09-23T21:11:31.900Z,101424.28
2022-09-23T21:14:00.942Z,101413.22
2022-09-23T21:16:28.229Z,101413.44
2022-09-23T21:18:55.188Z,101409.25
2022-09-23T21:21:22.529Z,101411.41
2022-09-23T21:23:50.655Z,101414.56
2022-09-23T21:26:23.732Z,101414.72
2022-09-23T21:28:58.057Z,101411.53
2022-09-23T21:31:34.362Z,101416.00
2022-09-23T21:34:05.103Z,101416.88
2022-09-23T21:36:36.992Z,101411.91
2022-09-23T21:39:05.606Z,101408.97
2022-09-23T21:41:33.473Z,101409.59
2022-09-23T21:44:02.466Z,101408.09
2022-09-23T21:46:29.673Z,101409.38
2022-09-23T21:48:58.655Z,101408.91
2022-09-23T21:51:36.311Z,101402.00
2022-09-23T21:54:03.262Z,101408.16
2022-09-23T21:56:35.103Z,101410.84
2022-09-23T21:59:02.632Z,101410.97
2022-09-23T22:01:36.378Z,101408.59
2022-09-23T22:04:10.640Z,101414.28
2022-09-23T22:06:40.257Z,101413.22
2022-09-23T22:09:12.261Z,101410.34
2022-09-23T22:11:59.022Z,101407.03
2022-09-23T22:14:27.134Z,101414.13
2022-09-23T22:16:58.834Z,101403.28
2022-09-23T22:19:42.656Z,101410.78
2022-09-23T22:22:15.217Z,101409.13
2022-09-23T22:24:47.720Z,101406.38
2022-09-23T22:27:17.438Z,101407.13
2022-09-23T22:30:02.952Z,101402.47
2022-09-23T22:32:54.880Z,101394.16
2022-09-23T22:35:22.197Z,101394.94
2022-09-23T22:37:49.069Z,101400.56
2022-09-23T22:40:16.391Z,101398.09
2022-09-23T22:42:43.887Z,101392.97
2022-09-23T22:45:12.192Z,101391.09
2022-09-23T22:47:43.399Z,101392.91
2022-09-23T22:50:11.247Z,101390.34
2022-09-23T22:52:38.560Z,101392.06
2022-09-23T22:55:07.914Z,101395.38
2022-09-23T22:57:35.367Z,101388.31
2022-09-23T23:00:05.034Z,101388.09
2022-09-23T23:02:32.978Z,101386.03
2022-09-23T23:05:00.829Z,101390.97
2022-09-23T23:07:27.735Z,101379.53
2022-09-23T23:09:54.824Z,101385.38
2022-09-23T23:12:21.974Z,101383.72
2022-09-23T23:14:49.680Z,101374.78
2022-09-23T23:17:17.481Z,101383.72
2022-09-23T23:19:44.444Z,101377.03
2022-09-23T23:22:11.569Z,101368.91
2022-09-23T23:24:38.550Z,101372.16
2022-09-23T23:27:05.500Z,101373.72
2022-09-23T23:29:32.396Z,101381.41
2022-09-23T23:31:59.341Z,101373.28
2022-09-23T23:34:26.267Z,101371.09
2022-09-23T23:36:57.073Z,101365.81
2022-09-23T23:39:25.796Z,101371.22
2022-09-23T23:41:54.935Z,101362.44
2022-09-23T23:44:24.486Z,101370.78
2022-09-23T23:46:52.156Z,101365.00
2022-09-23T23:49:19.494Z,101362.50
2022-09-23T23:51:47.804Z,101363.59
2022-09-23T23:54:15.190Z,101369.56
2022-09-23T23:56:42.245Z,101367.56
2022-09-23T23:59:09.206Z,101364.16
